sensor_id;sensor_type;location;lat;lon;timestamp;P1;durP1;ratioP1;P2;durP2;ratioP2
11123;SDS011;5616;42.692;23.312;2022-11-20T00:01:11;5.17;;;3.97;;
11123;SDS011;5616;42.692;23.312;2022-11-20T00:03:40;5.27;;;4.10;;
11123;SDS011;5616;42.692;23.312;2022-11-20T00:06:08;5.10;;;2.10;;
11123;SDS011;5616;42.692;23.312;2022-11-20T00:08:35;4.50;;;2.07;;
11123;SDS011;5616;42.692;23.312;2022-11-20T00:11:05;3.77;;;1.67;;
11123;SDS011;5616;42.692;23.312;2022-11-20T00:13:33;3.03;;;1.20;;
11123;SDS011;5616;42.692;23.312;2022-11-20T00:16:00;5.28;;;1.20;;
11123;SDS011;5616;42.692;23.312;2022-11-20T00:18:29;13.70;;;2.20;;
11123;SDS011;5616;42.692;23.312;2022-11-20T00:21:00;4.57;;;1.80;;
11123;SDS011;5616;42.692;23.312;2022-11-20T00:23:28;3.33;;;2.10;;
11123;SDS011;5616;42.692;23.312;2022-11-20T00:25:55;5.23;;;2.30;;
11123;SDS011;5616;42.692;23.312;2022-11-20T00:28:23;4.87;;;1.50;;
11123;SDS011;5616;42.692;23.312;2022-11-20T00:30:50;3.43;;;1.30;;
11123;SDS011;5616;42.692;23.312;2022-11-20T00:33:16;3.40;;;1.10;;
11123;SDS011;5616;42.692;23.312;2022-11-20T00:35:43;2.37;;;1.03;;
11123;SDS011;5616;42.692;23.312;2022-11-20T00:38:10;1.87;;;1.03;;
11123;SDS011;5616;42.692;23.312;2022-11-20T00:40:37;1.73;;;1.40;;
11123;SDS011;5616;42.692;23.312;2022-11-20T00:43:03;1.27;;;0.90;;
11123;SDS011;5616;42.692;23.312;2022-11-20T00:45:31;3.43;;;0.93;;
11123;SDS011;5616;42.692;23.312;2022-11-20T00:47:58;2.13;;;1.00;;
11123;SDS011;5616;42.692;23.312;2022-11-20T00:50:25;1.90;;;1.10;;
11123;SDS011;5616;42.692;23.312;2022-11-20T00:52:52;4.93;;;1.00;;
11123;SDS011;5616;42.692;23.312;2022-11-20T00:55:18;2.17;;;1.00;;
11123;SDS011;5616;42.692;23.312;2022-11-20T00:57:45;2.03;;;1.00;;
11123;SDS011;5616;42.692;23.312;2022-11-20T01:00:12;2.93;;;1.03;;
11123;SDS011;5616;42.692;23.312;2022-11-20T01:02:41;2.70;;;1.00;;
11123;SDS011;5616;42.692;23.312;2022-11-20T01:05:07;3.13;;;1.00;;
11123;SDS011;5616;42.692;23.312;2022-11-20T01:07:34;1.57;;;0.90;;
11123;SDS011;5616;42.692;23.312;2022-11-20T01:10:01;2.47;;;1.10;;
11123;SDS011;5616;42.692;23.312;2022-11-20T01:12:28;1.20;;;0.83;;
11123;SDS011;5616;42.692;23.312;2022-11-20T01:14:55;3.60;;;1.17;;
11123;SDS011;5616;42.692;23.312;2022-11-20T01:17:22;1.67;;;0.90;;
11123;SDS011;5616;42.692;23.312;2022-11-20T01:19:50;2.57;;;1.10;;
11123;SDS011;5616;42.692;23.312;2022-11-20T01:22:17;0.97;;;0.63;;
11123;SDS011;5616;42.692;23.312;2022-11-20T01:24:43;2.50;;;0.90;;
11123;SDS011;5616;42.692;23.312;2022-11-20T01:27:10;3.43;;;1.10;;
11123;SDS011;5616;42.692;23.312;2022-11-20T01:29:37;2.37;;;0.97;;
11123;SDS011;5616;42.692;23.312;2022-11-20T01:32:04;1.97;;;1.10;;
11123;SDS011;5616;42.692;23.312;2022-11-20T01:34:31;3.73;;;1.20;;
11123;SDS011;5616;42.692;23.312;2022-11-20T01:36:59;1.17;;;0.73;;
11123;SDS011;5616;42.692;23.312;2022-11-20T01:39:26;1.13;;;0.90;;
11123;SDS011;5616;42.692;23.312;2022-11-20T01:41:53;1.03;;;0.87;;
11123;SDS011;5616;42.692;23.312;2022-11-20T01:44:52;1.57;;;0.77;;
11123;SDS011;5616;42.692;23.312;2022-11-20T01:47:22;1.67;;;1.00;;
11123;SDS011;5616;42.692;23.312;2022-11-20T01:49:54;4.03;;;1.67;;
11123;SDS011;5616;42.692;23.312;2022-11-20T01:52:27;1.97;;;0.80;;
11123;SDS011;5616;42.692;23.312;2022-11-20T01:55:00;1.77;;;1.03;;
11123;SDS011;5616;42.692;23.312;2022-11-20T01:57:30;1.70;;;1.20;;
11123;SDS011;5616;42.692;23.312;2022-11-20T02:00:00;1.67;;;1.20;;
11123;SDS011;5616;42.692;23.312;2022-11-20T02:02:37;3.40;;;1.10;;
11123;SDS011;5616;42.692;23.312;2022-11-20T02:05:10;2.70;;;1.00;;
11123;SDS011;5616;42.692;23.312;2022-11-20T02:07:44;1.87;;;0.80;;
11123;SDS011;5616;42.692;23.312;2022-11-20T02:10:12;1.53;;;0.60;;
11123;SDS011;5616;42.692;23.312;2022-11-20T02:12:40;3.45;;;1.00;;
11123;SDS011;5616;42.692;23.312;2022-11-20T02:15:24;2.87;;;1.00;;
11123;SDS011;5616;42.692;23.312;2022-11-20T02:17:51;1.33;;;0.73;;
11123;SDS011;5616;42.692;23.312;2022-11-20T02:20:19;1.53;;;0.80;;
11123;SDS011;5616;42.692;23.312;2022-11-20T02:22:48;2.00;;;1.13;;
11123;SDS011;5616;42.692;23.312;2022-11-20T02:25:21;1.97;;;1.00;;
11123;SDS011;5616;42.692;23.312;2022-11-20T02:27:50;3.13;;;1.20;;
11123;SDS011;5616;42.692;23.312;2022-11-20T02:30:17;1.83;;;0.83;;
11123;SDS011;5616;42.692;23.312;2022-11-20T02:32:44;1.37;;;0.87;;
11123;SDS011;5616;42.692;23.312;2022-11-20T02:38:11;3.00;;;0.90;;
11123;SDS011;5616;42.692;23.312;2022-11-20T02:40:40;2.30;;;1.30;;
11123;SDS011;5616;42.692;23.312;2022-11-20T02:43:08;5.23;;;1.20;;
11123;SDS011;5616;42.692;23.312;2022-11-20T02:45:35;2.67;;;1.07;;
11123;SDS011;5616;42.692;23.312;2022-11-20T02:48:02;2.90;;;1.00;;
11123;SDS011;5616;42.692;23.312;2022-11-20T02:50:29;2.63;;;1.20;;
11123;SDS011;5616;42.692;23.312;2022-11-20T02:52:56;1.53;;;0.90;;
11123;SDS011;5616;42.692;23.312;2022-11-20T02:55:42;1.07;;;0.80;;
11123;SDS011;5616;42.692;23.312;2022-11-20T02:58:09;4.50;;;1.10;;
11123;SDS011;5616;42.692;23.312;2022-11-20T03:00:36;1.93;;;1.00;;
11123;SDS011;5616;42.692;23.312;2022-11-20T03:03:03;2.33;;;1.10;;
11123;SDS011;5616;42.692;23.312;2022-11-20T03:05:29;2.30;;;1.13;;
11123;SDS011;5616;42.692;23.312;2022-11-20T03:07:56;1.73;;;1.10;;
11123;SDS011;5616;42.692;23.312;2022-11-20T03:10:23;1.90;;;1.20;;
11123;SDS011;5616;42.692;23.312;2022-11-20T03:12:53;3.37;;;1.30;;
11123;SDS011;5616;42.692;23.312;2022-11-20T03:15:21;5.70;;;1.30;;
11123;SDS011;5616;42.692;23.312;2022-11-20T03:17:48;2.73;;;1.20;;
11123;SDS011;5616;42.692;23.312;2022-11-20T03:20:15;3.60;;;1.10;;
11123;SDS011;5616;42.692;23.312;2022-11-20T03:22:41;7.67;;;1.00;;
11123;SDS011;5616;42.692;23.312;2022-11-20T03:25:08;4.60;;;1.23;;
11123;SDS011;5616;42.692;23.312;2022-11-20T03:27:35;3.67;;;1.20;;
11123;SDS011;5616;42.692;23.312;2022-11-20T03:30:03;4.93;;;1.50;;
11123;SDS011;5616;42.692;23.312;2022-11-20T03:32:31;4.20;;;1.20;;
11123;SDS011;5616;42.692;23.312;2022-11-20T03:34:58;2.90;;;1.40;;
11123;SDS011;5616;42.692;23.312;2022-11-20T03:37:25;4.87;;;1.17;;
11123;SDS011;5616;42.692;23.312;2022-11-20T03:39:52;3.87;;;1.23;;
11123;SDS011;5616;42.692;23.312;2022-11-20T03:42:18;2.47;;;1.00;;
11123;SDS011;5616;42.692;23.312;2022-11-20T03:45:04;3.80;;;1.13;;
11123;SDS011;5616;42.692;23.312;2022-11-20T03:47:32;1.67;;;1.13;;
11123;SDS011;5616;42.692;23.312;2022-11-20T03:49:58;1.43;;;1.10;;
11123;SDS011;5616;42.692;23.312;2022-11-20T03:52:25;2.50;;;1.20;;
11123;SDS011;5616;42.692;23.312;2022-11-20T03:54:52;2.77;;;1.10;;
11123;SDS011;5616;42.692;23.312;2022-11-20T03:57:19;2.13;;;0.97;;
11123;SDS011;5616;42.692;23.312;2022-11-20T03:59:46;2.27;;;0.87;;
11123;SDS011;5616;42.692;23.312;2022-11-20T04:02:14;3.13;;;0.80;;
11123;SDS011;5616;42.692;23.312;2022-11-20T04:04:41;2.10;;;1.27;;
11123;SDS011;5616;42.692;23.312;2022-11-20T04:07:07;3.00;;;0.87;;
11123;SDS011;5616;42.692;23.312;2022-11-20T04:09:34;3.63;;;1.20;;
11123;SDS011;5616;42.692;23.312;2022-11-20T04:12:01;3.00;;;1.10;;
11123;SDS011;5616;42.692;23.312;2022-11-20T04:14:28;3.80;;;1.30;;
11123;SDS011;5616;42.692;23.312;2022-11-20T04:16:54;4.40;;;1.20;;
11123;SDS011;5616;42.692;23.312;2022-11-20T04:19:23;4.30;;;1.43;;
11123;SDS011;5616;42.692;23.312;2022-11-20T04:21:49;2.97;;;1.23;;
11123;SDS011;5616;42.692;23.312;2022-11-20T04:24:16;2.37;;;1.20;;
11123;SDS011;5616;42.692;23.312;2022-11-20T04:26:43;2.53;;;1.10;;
11123;SDS011;5616;42.692;23.312;2022-11-20T04:29:10;3.37;;;1.13;;
11123;SDS011;5616;42.692;23.312;2022-11-20T04:31:37;2.90;;;1.60;;
11123;SDS011;5616;42.692;23.312;2022-11-20T04:34:05;2.83;;;1.10;;
11123;SDS011;5616;42.692;23.312;2022-11-20T04:36:34;3.10;;;1.30;;
11123;SDS011;5616;42.692;23.312;2022-11-20T04:39:02;5.27;;;1.20;;
11123;SDS011;5616;42.692;23.312;2022-11-20T04:41:31;3.47;;;1.53;;
11123;SDS011;5616;42.692;23.312;2022-11-20T04:43:59;1.73;;;1.03;;
11123;SDS011;5616;42.692;23.312;2022-11-20T04:46:29;2.77;;;1.27;;
11123;SDS011;5616;42.692;23.312;2022-11-20T04:48:57;3.73;;;1.10;;
11123;SDS011;5616;42.692;23.312;2022-11-20T04:51:24;1.43;;;1.00;;
11123;SDS011;5616;42.692;23.312;2022-11-20T04:53:52;1.30;;;0.90;;
11123;SDS011;5616;42.692;23.312;2022-11-20T04:56:19;1.57;;;0.70;;
11123;SDS011;5616;42.692;23.312;2022-11-20T04:58:46;2.47;;;1.20;;
11123;SDS011;5616;42.692;23.312;2022-11-20T05:01:13;4.43;;;0.97;;
11123;SDS011;5616;42.692;23.312;2022-11-20T05:03:41;2.27;;;0.80;;
11123;SDS011;5616;42.692;23.312;2022-11-20T05:06:09;3.40;;;0.90;;
11123;SDS011;5616;42.692;23.312;2022-11-20T05:08:37;1.80;;;1.10;;
11123;SDS011;5616;42.692;23.312;2022-11-20T05:11:06;3.00;;;0.93;;
11123;SDS011;5616;42.692;23.312;2022-11-20T05:13:34;3.60;;;0.80;;
11123;SDS011;5616;42.692;23.312;2022-11-20T05:16:02;3.97;;;0.70;;
11123;SDS011;5616;42.692;23.312;2022-11-20T05:18:29;2.17;;;0.70;;
11123;SDS011;5616;42.692;23.312;2022-11-20T05:20:55;2.73;;;1.00;;
11123;SDS011;5616;42.692;23.312;2022-11-20T05:23:22;1.73;;;0.90;;
11123;SDS011;5616;42.692;23.312;2022-11-20T05:25:51;2.20;;;0.60;;
11123;SDS011;5616;42.692;23.312;2022-11-20T05:28:20;1.93;;;0.70;;
11123;SDS011;5616;42.692;23.312;2022-11-20T05:30:47;2.87;;;0.80;;
11123;SDS011;5616;42.692;23.312;2022-11-20T05:33:14;4.73;;;0.90;;
11123;SDS011;5616;42.692;23.312;2022-11-20T05:35:41;0.80;;;0.80;;
11123;SDS011;5616;42.692;23.312;2022-11-20T05:38:09;1.57;;;0.70;;
11123;SDS011;5616;42.692;23.312;2022-11-20T05:40:36;1.87;;;0.80;;
11123;SDS011;5616;42.692;23.312;2022-11-20T05:43:03;2.20;;;0.90;;
11123;SDS011;5616;42.692;23.312;2022-11-20T05:45:31;2.87;;;0.70;;
11123;SDS011;5616;42.692;23.312;2022-11-20T05:47:58;2.77;;;1.00;;
11123;SDS011;5616;42.692;23.312;2022-11-20T05:50:26;1.53;;;0.93;;
11123;SDS011;5616;42.692;23.312;2022-11-20T05:52:53;1.50;;;0.97;;
11123;SDS011;5616;42.692;23.312;2022-11-20T05:55:19;2.47;;;1.07;;
11123;SDS011;5616;42.692;23.312;2022-11-20T05:57:46;2.72;;;1.10;;
11123;SDS011;5616;42.692;23.312;2022-11-20T06:00:14;1.90;;;1.10;;
11123;SDS011;5616;42.692;23.312;2022-11-20T06:02:42;2.67;;;0.90;;
11123;SDS011;5616;42.692;23.312;2022-11-20T06:05:09;2.83;;;1.30;;
11123;SDS011;5616;42.692;23.312;2022-11-20T06:07:36;2.13;;;1.20;;
11123;SDS011;5616;42.692;23.312;2022-11-20T06:10:03;3.47;;;1.10;;
11123;SDS011;5616;42.692;23.312;2022-11-20T06:12:31;4.00;;;1.30;;
11123;SDS011;5616;42.692;23.312;2022-11-20T06:14:58;2.93;;;1.10;;
11123;SDS011;5616;42.692;23.312;2022-11-20T06:17:25;4.50;;;1.37;;
11123;SDS011;5616;42.692;23.312;2022-11-20T06:19:53;2.40;;;0.80;;
11123;SDS011;5616;42.692;23.312;2022-11-20T06:22:20;7.07;;;1.30;;
11123;SDS011;5616;42.692;23.312;2022-11-20T06:24:47;2.07;;;1.20;;
11123;SDS011;5616;42.692;23.312;2022-11-20T06:27:13;1.30;;;1.00;;
11123;SDS011;5616;42.692;23.312;2022-11-20T06:29:40;3.47;;;1.10;;
11123;SDS011;5616;42.692;23.312;2022-11-20T06:32:07;3.00;;;0.93;;
11123;SDS011;5616;42.692;23.312;2022-11-20T06:34:34;2.80;;;1.10;;
11123;SDS011;5616;42.692;23.312;2022-11-20T06:37:02;4.03;;;1.30;;
11123;SDS011;5616;42.692;23.312;2022-11-20T06:39:29;3.20;;;1.17;;
11123;SDS011;5616;42.692;23.312;2022-11-20T06:41:55;2.43;;;1.20;;
11123;SDS011;5616;42.692;23.312;2022-11-20T06:44:22;4.27;;;1.30;;
11123;SDS011;5616;42.692;23.312;2022-11-20T06:46:49;2.43;;;1.10;;
11123;SDS011;5616;42.692;23.312;2022-11-20T06:49:16;4.03;;;1.97;;
11123;SDS011;5616;42.692;23.312;2022-11-20T06:51:43;2.70;;;1.00;;
11123;SDS011;5616;42.692;23.312;2022-11-20T06:54:11;2.90;;;1.17;;
11123;SDS011;5616;42.692;23.312;2022-11-20T06:56:38;3.90;;;1.30;;
11123;SDS011;5616;42.692;23.312;2022-11-20T06:59:04;5.80;;;1.60;;
11123;SDS011;5616;42.692;23.312;2022-11-20T07:01:32;3.83;;;1.20;;
11123;SDS011;5616;42.692;23.312;2022-11-20T07:04:00;4.77;;;1.43;;
11123;SDS011;5616;42.692;23.312;2022-11-20T07:06:27;4.37;;;1.20;;
11123;SDS011;5616;42.692;23.312;2022-11-20T07:08:54;2.93;;;1.20;;
11123;SDS011;5616;42.692;23.312;2022-11-20T07:11:22;3.57;;;1.27;;
11123;SDS011;5616;42.692;23.312;2022-11-20T07:13:48;4.63;;;1.50;;
11123;SDS011;5616;42.692;23.312;2022-11-20T07:16:16;2.60;;;1.20;;
11123;SDS011;5616;42.692;23.312;2022-11-20T07:18:42;4.53;;;1.33;;
11123;SDS011;5616;42.692;23.312;2022-11-20T07:21:09;6.70;;;1.40;;
11123;SDS011;5616;42.692;23.312;2022-11-20T07:23:36;4.50;;;1.30;;
11123;SDS011;5616;42.692;23.312;2022-11-20T07:26:03;4.53;;;1.43;;
11123;SDS011;5616;42.692;23.312;2022-11-20T07:28:33;3.73;;;1.40;;
11123;SDS011;5616;42.692;23.312;2022-11-20T07:31:00;4.00;;;1.53;;
11123;SDS011;5616;42.692;23.312;2022-11-20T07:33:27;2.87;;;1.30;;
11123;SDS011;5616;42.692;23.312;2022-11-20T07:35:58;3.40;;;1.40;;
11123;SDS011;5616;42.692;23.312;2022-11-20T07:38:25;2.97;;;1.63;;
11123;SDS011;5616;42.692;23.312;2022-11-20T07:40:53;4.00;;;1.60;;
11123;SDS011;5616;42.692;23.312;2022-11-20T07:43:21;2.50;;;1.40;;
11123;SDS011;5616;42.692;23.312;2022-11-20T07:45:49;4.87;;;1.50;;
11123;SDS011;5616;42.692;23.312;2022-11-20T07:48:16;4.83;;;1.93;;
11123;SDS011;5616;42.692;23.312;2022-11-20T07:50:42;5.70;;;2.13;;
11123;SDS011;5616;42.692;23.312;2022-11-20T07:53:09;3.10;;;1.87;;
11123;SDS011;5616;42.692;23.312;2022-11-20T07:55:37;4.33;;;1.90;;
11123;SDS011;5616;42.692;23.312;2022-11-20T07:58:04;2.97;;;2.03;;
11123;SDS011;5616;42.692;23.312;2022-11-20T08:00:31;4.63;;;2.30;;
11123;SDS011;5616;42.692;23.312;2022-11-20T08:02:59;7.63;;;1.90;;
11123;SDS011;5616;42.692;23.312;2022-11-20T08:05:29;4.70;;;2.20;;
11123;SDS011;5616;42.692;23.312;2022-11-20T08:07:56;6.20;;;2.10;;
11123;SDS011;5616;42.692;23.312;2022-11-20T08:10:23;6.77;;;2.60;;
11123;SDS011;5616;42.692;23.312;2022-11-20T08:12:50;3.57;;;2.33;;
11123;SDS011;5616;42.692;23.312;2022-11-20T08:15:36;5.70;;;2.20;;
11123;SDS011;5616;42.692;23.312;2022-11-20T08:18:07;6.07;;;2.53;;
11123;SDS011;5616;42.692;23.312;2022-11-20T08:20:35;6.77;;;2.63;;
11123;SDS011;5616;42.692;23.312;2022-11-20T08:23:03;5.33;;;2.70;;
11123;SDS011;5616;42.692;23.312;2022-11-20T08:25:32;6.13;;;2.60;;
11123;SDS011;5616;42.692;23.312;2022-11-20T08:28:00;6.33;;;2.63;;
11123;SDS011;5616;42.692;23.312;2022-11-20T08:30:28;6.13;;;2.30;;
11123;SDS011;5616;42.692;23.312;2022-11-20T08:32:59;8.10;;;2.30;;
11123;SDS011;5616;42.692;23.312;2022-11-20T08:35:29;4.40;;;1.77;;
11123;SDS011;5616;42.692;23.312;2022-11-20T08:37:59;3.80;;;1.50;;
11123;SDS011;5616;42.692;23.312;2022-11-20T08:40:26;4.50;;;1.50;;
11123;SDS011;5616;42.692;23.312;2022-11-20T08:42:53;5.13;;;1.97;;
11123;SDS011;5616;42.692;23.312;2022-11-20T08:45:20;6.20;;;1.40;;
11123;SDS011;5616;42.692;23.312;2022-11-20T08:47:47;5.70;;;1.40;;
11123;SDS011;5616;42.692;23.312;2022-11-20T08:50:14;6.20;;;1.40;;
11123;SDS011;5616;42.692;23.312;2022-11-20T08:52:43;7.27;;;1.60;;
11123;SDS011;5616;42.692;23.312;2022-11-20T08:55:10;4.60;;;1.90;;
11123;SDS011;5616;42.692;23.312;2022-11-20T08:57:37;4.27;;;1.63;;
11123;SDS011;5616;42.692;23.312;2022-11-20T09:00:06;4.50;;;1.80;;
11123;SDS011;5616;42.692;23.312;2022-11-20T09:02:33;3.93;;;2.10;;
11123;SDS011;5616;42.692;23.312;2022-11-20T09:05:00;5.83;;;2.40;;
11123;SDS011;5616;42.692;23.312;2022-11-20T09:07:28;6.13;;;2.20;;
11123;SDS011;5616;42.692;23.312;2022-11-20T09:09:56;4.90;;;2.33;;
11123;SDS011;5616;42.692;23.312;2022-11-20T09:12:23;6.93;;;2.33;;
11123;SDS011;5616;42.692;23.312;2022-11-20T09:14:50;7.43;;;2.43;;
11123;SDS011;5616;42.692;23.312;2022-11-20T09:17:16;4.80;;;2.20;;
11123;SDS011;5616;42.692;23.312;2022-11-20T09:19:45;6.23;;;2.10;;
11123;SDS011;5616;42.692;23.312;2022-11-20T09:22:13;2.47;;;1.60;;
11123;SDS011;5616;42.692;23.312;2022-11-20T09:24:39;5.87;;;1.83;;
11123;SDS011;5616;42.692;23.312;2022-11-20T09:27:09;7.23;;;2.20;;
11123;SDS011;5616;42.692;23.312;2022-11-20T09:29:36;5.50;;;2.00;;
11123;SDS011;5616;42.692;23.312;2022-11-20T09:32:02;6.00;;;1.73;;
11123;SDS011;5616;42.692;23.312;2022-11-20T09:34:30;5.67;;;1.70;;
11123;SDS011;5616;42.692;23.312;2022-11-20T09:36:56;5.23;;;1.40;;
11123;SDS011;5616;42.692;23.312;2022-11-20T09:39:23;2.53;;;1.40;;
11123;SDS011;5616;42.692;23.312;2022-11-20T09:42:01;3.87;;;1.43;;
11123;SDS011;5616;42.692;23.312;2022-11-20T09:44:48;2.37;;;1.70;;
11123;SDS011;5616;42.692;23.312;2022-11-20T09:47:24;2.73;;;1.30;;
11123;SDS011;5616;42.692;23.312;2022-11-20T09:50:06;5.37;;;2.33;;
11123;SDS011;5616;42.692;23.312;2022-11-20T09:52:47;4.50;;;1.80;;
11123;SDS011;5616;42.692;23.312;2022-11-20T09:55:25;3.07;;;1.93;;
11123;SDS011;5616;42.692;23.312;2022-11-20T09:57:54;4.77;;;2.50;;
11123;SDS011;5616;42.692;23.312;2022-11-20T10:00:24;4.67;;;2.87;;
11123;SDS011;5616;42.692;23.312;2022-11-20T10:02:53;5.03;;;2.63;;
11123;SDS011;5616;42.692;23.312;2022-11-20T10:05:25;4.97;;;2.43;;
11123;SDS011;5616;42.692;23.312;2022-11-20T10:07:59;6.57;;;2.77;;
11123;SDS011;5616;42.692;23.312;2022-11-20T10:10:40;6.10;;;2.43;;
11123;SDS011;5616;42.692;23.312;2022-11-20T10:13:19;6.60;;;2.67;;
11123;SDS011;5616;42.692;23.312;2022-11-20T10:15:57;4.03;;;2.20;;
11123;SDS011;5616;42.692;23.312;2022-11-20T10:18:39;4.43;;;2.30;;
11123;SDS011;5616;42.692;23.312;2022-11-20T10:21:16;3.97;;;2.20;;
11123;SDS011;5616;42.692;23.312;2022-11-20T10:23:59;10.10;;;2.90;;
11123;SDS011;5616;42.692;23.312;2022-11-20T10:26:42;6.87;;;2.37;;
11123;SDS011;5616;42.692;23.312;2022-11-20T10:29:18;4.97;;;2.30;;
11123;SDS011;5616;42.692;23.312;2022-11-20T10:31:50;4.03;;;2.30;;
11123;SDS011;5616;42.692;23.312;2022-11-20T10:34:22;7.83;;;2.60;;
11123;SDS011;5616;42.692;23.312;2022-11-20T10:36:54;4.30;;;2.40;;
11123;SDS011;5616;42.692;23.312;2022-11-20T10:39:25;11.83;;;5.67;;
11123;SDS011;5616;42.692;23.312;2022-11-20T10:41:59;7.33;;;4.03;;
11123;SDS011;5616;42.692;23.312;2022-11-20T10:44:27;7.83;;;3.50;;
11123;SDS011;5616;42.692;23.312;2022-11-20T10:47:15;7.47;;;2.93;;
11123;SDS011;5616;42.692;23.312;2022-11-20T10:49:43;8.43;;;2.93;;
11123;SDS011;5616;42.692;23.312;2022-11-20T10:52:17;6.83;;;2.90;;
11123;SDS011;5616;42.692;23.312;2022-11-20T10:54:53;7.93;;;3.10;;
11123;SDS011;5616;42.692;23.312;2022-11-20T10:57:30;10.07;;;3.07;;
11123;SDS011;5616;42.692;23.312;2022-11-20T11:00:08;9.97;;;2.73;;
11123;SDS011;5616;42.692;23.312;2022-11-20T11:02:42;7.27;;;2.83;;
11123;SDS011;5616;42.692;23.312;2022-11-20T11:05:14;7.50;;;2.80;;
11123;SDS011;5616;42.692;23.312;2022-11-20T11:07:49;4.87;;;2.20;;
11123;SDS011;5616;42.692;23.312;2022-11-20T11:10:21;9.23;;;1.50;;
11123;SDS011;5616;42.692;23.312;2022-11-20T11:12:52;3.17;;;1.37;;
11123;SDS011;5616;42.692;23.312;2022-11-20T11:15:25;2.40;;;1.50;;
11123;SDS011;5616;42.692;23.312;2022-11-20T11:17:55;4.63;;;1.90;;
11123;SDS011;5616;42.692;23.312;2022-11-20T11:20:23;7.63;;;2.30;;
11123;SDS011;5616;42.692;23.312;2022-11-20T11:22:51;4.83;;;1.80;;
11123;SDS011;5616;42.692;23.312;2022-11-20T11:25:27;4.43;;;1.63;;
11123;SDS011;5616;42.692;23.312;2022-11-20T11:27:56;2.47;;;1.60;;
11123;SDS011;5616;42.692;23.312;2022-11-20T11:30:25;4.53;;;1.40;;
11123;SDS011;5616;42.692;23.312;2022-11-20T11:33:06;4.97;;;1.00;;
11123;SDS011;5616;42.692;23.312;2022-11-20T11:35:38;2.93;;;1.10;;
11123;SDS011;5616;42.692;23.312;2022-11-20T11:38:12;2.13;;;1.10;;
11123;SDS011;5616;42.692;23.312;2022-11-20T11:40:41;2.43;;;1.00;;
11123;SDS011;5616;42.692;23.312;2022-11-20T11:43:16;1.43;;;0.90;;
11123;SDS011;5616;42.692;23.312;2022-11-20T11:45:59;4.20;;;1.20;;
11123;SDS011;5616;42.692;23.312;2022-11-20T11:48:28;1.87;;;1.00;;
11123;SDS011;5616;42.692;23.312;2022-11-20T11:50:55;1.50;;;1.10;;
11123;SDS011;5616;42.692;23.312;2022-11-20T11:53:22;5.87;;;1.20;;
11123;SDS011;5616;42.692;23.312;2022-11-20T11:55:55;3.90;;;1.00;;
11123;SDS011;5616;42.692;23.312;2022-11-20T11:58:39;2.57;;;1.20;;
11123;SDS011;5616;42.692;23.312;2022-11-20T12:01:14;3.23;;;1.47;;
11123;SDS011;5616;42.692;23.312;2022-11-20T12:03:55;4.37;;;1.40;;
11123;SDS011;5616;42.692;23.312;2022-11-20T12:06:30;4.77;;;1.30;;
11123;SDS011;5616;42.692;23.312;2022-11-20T12:09:01;3.40;;;1.03;;
11123;SDS011;5616;42.692;23.312;2022-11-20T12:11:31;1.83;;;1.00;;
11123;SDS011;5616;42.692;23.312;2022-11-20T12:14:03;4.90;;;1.83;;
11123;SDS011;5616;42.692;23.312;2022-11-20T12:16:36;4.60;;;1.13;;
11123;SDS011;5616;42.692;23.312;2022-11-20T12:19:08;4.10;;;1.20;;
11123;SDS011;5616;42.692;23.312;2022-11-20T12:21:40;2.20;;;1.00;;
11123;SDS011;5616;42.692;23.312;2022-11-20T12:27:34;5.63;;;1.57;;
11123;SDS011;5616;42.692;23.312;2022-11-20T12:30:23;4.47;;;1.80;;
11123;SDS011;5616;42.692;23.312;2022-11-20T12:33:03;5.00;;;1.50;;
11123;SDS011;5616;42.692;23.312;2022-11-20T12:35:55;2.27;;;1.00;;
11123;SDS011;5616;42.692;23.312;2022-11-20T12:38:45;2.47;;;1.00;;
11123;SDS011;5616;42.692;23.312;2022-11-20T12:41:25;2.53;;;0.97;;
11123;SDS011;5616;42.692;23.312;2022-11-20T12:44:29;2.70;;;1.37;;
11123;SDS011;5616;42.692;23.312;2022-11-20T12:47:27;4.33;;;1.40;;
11123;SDS011;5616;42.692;23.312;2022-11-20T12:50:06;3.53;;;1.17;;
11123;SDS011;5616;42.692;23.312;2022-11-20T12:52:48;3.43;;;1.40;;
11123;SDS011;5616;42.692;23.312;2022-11-20T12:55:28;7.07;;;3.00;;
11123;SDS011;5616;42.692;23.312;2022-11-20T12:58:16;5.77;;;3.17;;
11123;SDS011;5616;42.692;23.312;2022-11-20T13:00:51;5.57;;;3.27;;
11123;SDS011;5616;42.692;23.312;2022-11-20T13:03:28;9.97;;;3.23;;
11123;SDS011;5616;42.692;23.312;2022-11-20T13:06:06;4.43;;;2.70;;
11123;SDS011;5616;42.692;23.312;2022-11-20T13:08:41;5.73;;;2.70;;
11123;SDS011;5616;42.692;23.312;2022-11-20T13:11:13;4.43;;;2.70;;
11123;SDS011;5616;42.692;23.312;2022-11-20T13:13:51;6.17;;;2.70;;
11123;SDS011;5616;42.692;23.312;2022-11-20T13:16:30;5.83;;;2.90;;
11123;SDS011;5616;42.692;23.312;2022-11-20T13:19:08;6.03;;;3.30;;
11123;SDS011;5616;42.692;23.312;2022-11-20T13:21:39;8.60;;;3.13;;
11123;SDS011;5616;42.692;23.312;2022-11-20T13:24:20;5.13;;;3.03;;
11123;SDS011;5616;42.692;23.312;2022-11-20T13:27:02;8.83;;;3.53;;
11123;SDS011;5616;42.692;23.312;2022-11-20T13:29:31;5.87;;;3.70;;
11123;SDS011;5616;42.692;23.312;2022-11-20T13:32:03;5.97;;;4.37;;
11123;SDS011;5616;42.692;23.312;2022-11-20T13:34:32;9.63;;;6.73;;
11123;SDS011;5616;42.692;23.312;2022-11-20T13:37:00;10.50;;;7.23;;
11123;SDS011;5616;42.692;23.312;2022-11-20T13:39:31;9.70;;;7.60;;
11123;SDS011;5616;42.692;23.312;2022-11-20T13:41:59;9.43;;;7.03;;
11123;SDS011;5616;42.692;23.312;2022-11-20T13:44:29;7.83;;;6.53;;
11123;SDS011;5616;42.692;23.312;2022-11-20T13:47:03;6.63;;;5.00;;
11123;SDS011;5616;42.692;23.312;2022-11-20T13:49:31;8.60;;;5.13;;
11123;SDS011;5616;42.692;23.312;2022-11-20T13:52:07;6.20;;;5.32;;
11123;SDS011;5616;42.692;23.312;2022-11-20T13:54:58;9.70;;;4.50;;
11123;SDS011;5616;42.692;23.312;2022-11-20T13:57:43;8.70;;;4.73;;
11123;SDS011;5616;42.692;23.312;2022-11-20T14:00:28;8.63;;;4.70;;
11123;SDS011;5616;42.692;23.312;2022-11-20T14:02:59;8.27;;;4.17;;
11123;SDS011;5616;42.692;23.312;2022-11-20T14:05:34;4.70;;;3.90;;
11123;SDS011;5616;42.692;23.312;2022-11-20T14:08:03;7.03;;;3.77;;
11123;SDS011;5616;42.692;23.312;2022-11-20T14:10:33;9.60;;;3.73;;
11123;SDS011;5616;42.692;23.312;2022-11-20T14:13:09;10.33;;;3.93;;
11123;SDS011;5616;42.692;23.312;2022-11-20T14:15:37;5.67;;;3.43;;
11123;SDS011;5616;42.692;23.312;2022-11-20T14:18:11;5.43;;;3.77;;
11123;SDS011;5616;42.692;23.312;2022-11-20T14:20:39;5.53;;;3.53;;
11123;SDS011;5616;42.692;23.312;2022-11-20T14:23:07;6.43;;;3.87;;
11123;SDS011;5616;42.692;23.312;2022-11-20T14:25:37;7.30;;;3.63;;
11123;SDS011;5616;42.692;23.312;2022-11-20T14:28:10;5.73;;;3.43;;
11123;SDS011;5616;42.692;23.312;2022-11-20T14:30:46;6.13;;;3.43;;
11123;SDS011;5616;42.692;23.312;2022-11-20T14:33:15;6.90;;;3.53;;
11123;SDS011;5616;42.692;23.312;2022-11-20T14:35:44;4.07;;;3.50;;
11123;SDS011;5616;42.692;23.312;2022-11-20T14:38:13;8.43;;;3.70;;
11123;SDS011;5616;42.692;23.312;2022-11-20T14:40:43;3.83;;;3.10;;
11123;SDS011;5616;42.692;23.312;2022-11-20T14:43:17;8.93;;;3.60;;
11123;SDS011;5616;42.692;23.312;2022-11-20T14:45:48;4.87;;;3.30;;
11123;SDS011;5616;42.692;23.312;2022-11-20T14:48:22;5.23;;;2.53;;
11123;SDS011;5616;42.692;23.312;2022-11-20T14:50:54;4.07;;;2.17;;
11123;SDS011;5616;42.692;23.312;2022-11-20T14:53:25;5.60;;;2.17;;
11123;SDS011;5616;42.692;23.312;2022-11-20T14:55:57;3.43;;;1.90;;
11123;SDS011;5616;42.692;23.312;2022-11-20T14:58:26;3.23;;;2.20;;
11123;SDS011;5616;42.692;23.312;2022-11-20T15:00:55;5.13;;;2.33;;
11123;SDS011;5616;42.692;23.312;2022-11-20T15:03:23;3.57;;;2.17;;
11123;SDS011;5616;42.692;23.312;2022-11-20T15:05:56;2.87;;;2.20;;
11123;SDS011;5616;42.692;23.312;2022-11-20T15:08:23;3.70;;;2.17;;
11123;SDS011;5616;42.692;23.312;2022-11-20T15:10:50;3.23;;;2.33;;
11123;SDS011;5616;42.692;23.312;2022-11-20T15:13:23;3.17;;;2.30;;